Time;durP1;ratioP1;P1;durP2;ratioP2;P2;SDS_P1;SDS_P2;PMS_P1;PMS_P2;Temp;Humidity;BMP_temperature;BMP_pressure;BME280_temperature;BME280_humidity;BME280_pressure;Samples;Min_cycle;Max_cycle;Signal;HPM_P1;HPM_P2
2023/06/02 00:00:53;;;;;;;;;3.75;2.50;;;;;;;;5048962;28;46290;-81
2023/06/02 00:03:18;;;;;;;;;3.00;2.00;;;;;;;;5056662;28;45405;-81
2023/06/02 00:05:44;;;;;;;;;4.00;1.00;;;;;;;;5056816;28;45348;-81
2023/06/02 00:08:10;;;;;;;;;1.25;1.00;;;;;;;;5056580;28;45392;-81
2023/06/02 00:10:35;;;;;;;;;3.25;2.00;;;;;;;;5055950;28;46225;-81
2023/06/02 00:13:02;;;;;;;;;2.50;2.00;;;;;;;;5056386;28;45389;-81
2023/06/02 00:15:29;;;;;;;;;4.00;1.00;;;;;;;;5044805;28;45486;-81
2023/06/02 00:17:54;;;;;;;;;1.75;1.75;;;;;;;;5042454;28;45503;-81
2023/06/02 00:20:26;;;;;;;;;1.00;1.00;;;;;;;;5054409;28;46234;-81
2023/06/02 00:22:52;;;;;;;;;1.00;1.00;;;;;;;;5056359;28;45317;-81
2023/06/02 00:25:17;;;;;;;;;6.75;2.50;;;;;;;;5056025;28;45245;-81
2023/06/02 00:27:42;;;;;;;;;1.00;1.00;;;;;;;;5066471;28;45215;-80
2023/06/02 00:30:08;;;;;;;;;2.33;1.33;;;;;;;;5072183;28;45430;-80
2023/06/02 00:32:33;;;;;;;;;1.75;1.75;;;;;;;;5056240;28;45284;-80
2023/06/02 00:34:58;;;;;;;;;7.00;2.00;;;;;;;;5056232;28;45264;-80
2023/06/02 00:37:23;;;;;;;;;3.00;2.00;;;;;;;;5056505;28;45465;-80
2023/06/02 00:39:49;;;;;;;;;5.00;3.00;;;;;;;;5055634;28;45818;-80
2023/06/02 00:42:14;;;;;;;;;3.00;1.67;;;;;;;;5055985;28;45459;-80
2023/06/02 00:44:39;;;;;;;;;4.00;3.00;;;;;;;;5056249;28;45361;-80
2023/06/02 00:47:05;;;;;;;;;4.33;3.33;;;;;;;;5038962;28;45469;-81
2023/06/02 00:49:30;;;;;;;;;5.50;2.75;;;;;;;;5035872;28;46793;-80
2023/06/02 00:51:57;;;;;;;;;5.00;3.00;;;;;;;;5035826;28;45395;-80
2023/06/02 00:54:22;;;;;;;;;2.50;2.00;;;;;;;;5035884;28;45399;-80
2023/06/02 00:56:47;;;;;;;;;6.00;4.00;;;;;;;;5035780;28;45368;-80
2023/06/02 00:59:12;;;;;;;;;2.67;2.67;;;;;;;;5035531;28;45586;-80
2023/06/02 01:01:39;;;;;;;;;6.00;3.00;;;;;;;;5035793;28;45416;-81
2023/06/02 01:04:05;;;;;;;;;5.50;3.00;;;;;;;;5035931;28;45364;-80
2023/06/02 01:06:36;;;;;;;;;5.75;4.00;;;;;;;;5035798;28;45443;-80
2023/06/02 01:09:03;;;;;;;;;6.00;3.00;;;;;;;;5048564;28;46323;-80
2023/06/02 01:11:28;;;;;;;;;6.75;4.00;;;;;;;;5055478;28;45772;-80
2023/06/02 01:13:54;;;;;;;;;4.00;3.75;;;;;;;;5055738;28;45362;-80
2023/06/02 01:16:19;;;;;;;;;4.00;3.00;;;;;;;;5055767;28;45347;-81
2023/06/02 01:18:45;;;;;;;;;5.50;4.00;;;;;;;;5054758;28;45449;-81
2023/06/02 01:21:12;;;;;;;;;5.00;4.75;;;;;;;;5035556;28;45899;-80
2023/06/02 01:23:49;;;;;;;;;7.00;4.00;;;;;;;;5035240;28;45244;-81
2023/06/02 01:26:14;;;;;;;;;5.50;4.00;;;;;;;;5035600;28;45559;-80
2023/06/02 01:28:39;;;;;;;;;6.25;4.00;;;;;;;;5034059;28;47312;-80
2023/06/02 01:31:08;;;;;;;;;5.67;4.67;;;;;;;;5035199;28;45373;-80
2023/06/02 01:33:33;;;;;;;;;4.25;2.75;;;;;;;;5037303;28;45312;-80
2023/06/02 01:35:59;;;;;;;;;7.00;4.00;;;;;;;;5055107;28;45578;-80
2023/06/02 01:38:26;;;;;;;;;4.75;3.00;;;;;;;;5055141;28;46117;-80
2023/06/02 01:40:54;;;;;;;;;5.00;2.75;;;;;;;;5054719;28;45236;-80
2023/06/02 01:43:19;;;;;;;;;5.00;4.00;;;;;;;;5055100;28;45491;-80
2023/06/02 01:45:45;;;;;;;;;11.00;5.00;;;;;;;;5053597;28;45413;-80
2023/06/02 01:48:10;;;;;;;;;5.50;3.00;;;;;;;;5055141;28;46071;-80
2023/06/02 01:50:37;;;;;;;;;6.00;4.00;;;;;;;;5053621;28;45504;-81
2023/06/02 01:53:02;;;;;;;;;10.00;3.00;;;;;;;;5055351;28;45321;-80
2023/06/02 01:55:27;;;;;;;;;6.00;4.25;;;;;;;;5055168;28;45350;-80
2023/06/02 01:57:53;;;;;;;;;8.33;5.33;;;;;;;;5055178;28;45634;-81
2023/06/02 02:00:19;;;;;;;;;4.33;4.33;;;;;;;;5057908;28;45485;-79
2023/06/02 02:02:44;;;;;;;;;4.75;4.00;;;;;;;;5038473;28;45474;-80
2023/06/02 02:05:10;;;;;;;;;6.33;3.67;;;;;;;;5036762;28;45424;-80
2023/06/02 02:07:36;;;;;;;;;4.75;3.00;;;;;;;;5038102;28;45466;-80
2023/06/02 02:10:02;;;;;;;;;6.00;4.00;;;;;;;;5038290;28;45384;-81
2023/06/02 02:12:28;;;;;;;;;4.50;3.00;;;;;;;;5055144;28;45236;-80
2023/06/02 02:14:56;;;;;;;;;5.00;5.00;;;;;;;;5067395;28;45431;-81
2023/06/02 02:17:25;;;;;;;;;5.25;5.00;;;;;;;;5058160;28;45706;-80
2023/06/02 02:19:50;;;;;;;;;5.25;4.00;;;;;;;;5058221;28;45197;-81
2023/06/02 02:22:16;;;;;;;;;3.50;3.50;;;;;;;;5058581;28;45286;-80
2023/06/02 02:24:41;;;;;;;;;6.25;4.00;;;;;;;;5058353;28;45238;-80
2023/06/02 02:27:08;;;;;;;;;6.33;4.00;;;;;;;;5057938;28;46732;-80
2023/06/02 02:29:33;;;;;;;;;8.50;4.75;;;;;;;;5045995;28;45787;-79
2023/06/02 02:31:58;;;;;;;;;7.33;4.00;;;;;;;;5036984;28;45406;-80
2023/06/02 02:34:25;;;;;;;;;7.67;3.67;;;;;;;;5036458;28;45479;-79
2023/06/02 02:36:51;;;;;;;;;6.00;4.75;;;;;;;;5038009;28;47508;-80
2023/06/02 02:39:17;;;;;;;;;5.50;4.00;;;;;;;;5038005;28;45694;-80
2023/06/02 02:41:42;;;;;;;;;5.00;4.00;;;;;;;;5040072;28;45439;-80
2023/06/02 02:44:07;;;;;;;;;6.00;5.00;;;;;;;;5058002;28;45595;-80
2023/06/02 02:46:32;;;;;;;;;8.00;4.00;;;;;;;;5056412;28;47514;-78
2023/06/02 02:48:57;;;;;;;;;4.67;2.33;;;;;;;;5057679;28;45372;-80
2023/06/02 02:51:23;;;;;;;;;5.67;3.00;;;;;;;;5057766;28;45400;-80
2023/06/02 02:53:48;;;;;;;;;9.67;4.00;;;;;;;;5057794;28;45530;-80
2023/06/02 02:56:14;;;;;;;;;9.33;5.33;;;;;;;;5057361;28;45583;-79
2023/06/02 02:58:40;;;;;;;;;14.50;4.00;;;;;;;;5056109;28;46206;-80
2023/06/02 03:01:05;;;;;;;;;9.00;4.33;;;;;;;;5057686;28;45539;-81
2023/06/02 03:03:32;;;;;;;;;9.00;5.67;;;;;;;;5057292;28;45226;-81
2023/06/02 03:05:57;;;;;;;;;11.50;5.25;;;;;;;;5057315;28;46718;-80
2023/06/02 03:08:22;;;;;;;;;6.00;4.00;;;;;;;;5057522;28;45381;-80
2023/06/02 03:10:47;;;;;;;;;10.25;5.00;;;;;;;;5046429;28;45548;-81
2023/06/02 03:13:14;;;;;;;;;7.33;5.00;;;;;;;;5045341;28;45510;-81
2023/06/02 03:15:39;;;;;;;;;7.50;4.00;;;;;;;;5057365;28;46373;-80
2023/06/02 03:18:04;;;;;;;;;7.75;4.00;;;;;;;;5057054;28;45445;-81
2023/06/02 03:20:30;;;;;;;;;8.75;5.75;;;;;;;;5056276;28;45351;-80
2023/06/02 03:22:55;;;;;;;;;10.00;4.00;;;;;;;;5057427;28;45359;-81
2023/06/02 03:25:21;;;;;;;;;14.25;4.00;;;;;;;;5056888;28;46206;-81
2023/06/02 03:27:47;;;;;;;;;8.00;4.00;;;;;;;;5055950;28;45708;-81
2023/06/02 03:30:12;;;;;;;;;7.25;4.50;;;;;;;;5057171;28;45292;-81
2023/06/02 03:32:37;;;;;;;;;7.75;5.25;;;;;;;;5056768;28;45355;-81
2023/06/02 03:35:02;;;;;;;;;7.33;6.00;;;;;;;;5041071;28;48007;-81
2023/06/02 03:37:28;;;;;;;;;7.33;3.67;;;;;;;;5036946;28;45531;-81
2023/06/02 03:39:53;;;;;;;;;5.67;3.00;;;;;;;;5056905;28;45407;-81
2023/06/02 03:42:18;;;;;;;;;8.67;4.00;;;;;;;;5057193;28;45432;-81
2023/06/02 03:44:43;;;;;;;;;11.67;7.67;;;;;;;;5056748;28;46630;-81
2023/06/02 03:47:08;;;;;;;;;11.00;4.33;;;;;;;;5056609;28;45348;-81
2023/06/02 03:49:36;;;;;;;;;8.67;5.00;;;;;;;;5057074;28;45350;-81
2023/06/02 03:52:01;;;;;;;;;4.00;3.50;;;;;;;;5056942;28;45260;-82
2023/06/02 03:54:26;;;;;;;;;8.33;6.00;;;;;;;;5077909;28;45418;-81
2023/06/02 03:56:51;;;;;;;;;9.33;3.33;;;;;;;;5057327;28;45320;-81
2023/06/02 03:59:17;;;;;;;;;8.00;5.00;;;;;;;;5056635;28;45537;-81
2023/06/02 04:01:42;;;;;;;;;8.50;5.00;;;;;;;;5055102;28;45550;-80
2023/06/02 04:04:11;;;;;;;;;5.00;5.00;;;;;;;;5057035;28;47278;-81
2023/06/02 04:06:37;;;;;;;;;7.75;4.75;;;;;;;;5046216;28;45417;-81
2023/06/02 04:09:03;;;;;;;;;4.75;4.75;;;;;;;;5035381;28;45564;-81
2023/06/02 04:11:28;;;;;;;;;6.25;5.00;;;;;;;;5036514;28;45478;-81
2023/06/02 04:13:53;;;;;;;;;8.33;4.00;;;;;;;;5050326;28;45524;-81
2023/06/02 04:16:18;;;;;;;;;8.67;4.00;;;;;;;;5056586;28;45398;-81
2023/06/02 04:18:43;;;;;;;;;11.00;5.00;;;;;;;;5056393;28;45371;-81
2023/06/02 04:21:09;;;;;;;;;9.33;7.67;;;;;;;;5055810;28;45477;-81
2023/06/02 04:23:34;;;;;;;;;10.25;5.00;;;;;;;;5056213;28;46388;-82
2023/06/02 04:25:59;;;;;;;;;12.00;9.33;;;;;;;;5051121;28;45398;-81
2023/06/02 04:28:25;;;;;;;;;10.50;4.75;;;;;;;;5036218;28;45380;-81
2023/06/02 04:30:55;;;;;;;;;11.50;6.25;;;;;;;;5035797;28;45379;-81
2023/06/02 04:33:20;;;;;;;;;14.00;4.50;;;;;;;;5035925;28;45645;-80
2023/06/02 04:35:46;;;;;;;;;8.75;4.00;;;;;;;;5055712;28;45320;-81
2023/06/02 04:38:12;;;;;;;;;9.00;5.67;;;;;;;;5056155;28;45545;-81
2023/06/02 04:40:38;;;;;;;;;6.25;5.50;;;;;;;;5056199;28;45328;-81
2023/06/02 04:43:03;;;;;;;;;8.75;8.00;;;;;;;;5055981;28;46270;-80
2023/06/02 04:45:29;;;;;;;;;11.00;7.75;;;;;;;;5055594;28;45359;-80
2023/06/02 04:47:54;;;;;;;;;9.00;7.25;;;;;;;;5056114;28;45276;-81
2023/06/02 04:50:19;;;;;;;;;7.67;7.33;;;;;;;;5037224;28;45242;-81
2023/06/02 04:52:44;;;;;;;;;9.00;5.00;;;;;;;;5034433;28;47167;-81
2023/06/02 04:55:10;;;;;;;;;6.33;6.33;;;;;;;;5035833;28;45170;-81
2023/06/02 04:57:36;;;;;;;;;10.25;6.00;;;;;;;;5035878;28;45230;-80
2023/06/02 05:00:03;;;;;;;;;9.25;8.00;;;;;;;;5035290;28;45238;-80
2023/06/02 05:02:29;;;;;;;;;6.25;5.25;;;;;;;;5035214;28;46936;-81
2023/06/02 05:04:54;;;;;;;;;11.75;6.50;;;;;;;;5035688;28;45301;-80
2023/06/02 05:07:19;;;;;;;;;12.00;8.00;;;;;;;;5035578;28;45405;-80
2023/06/02 05:09:44;;;;;;;;;8.67;8.00;;;;;;;;5035555;28;45985;-80
2023/06/02 05:12:10;;;;;;;;;15.33;10.00;;;;;;;;5035693;28;46265;-80
2023/06/02 05:14:36;;;;;;;;;10.75;7.00;;;;;;;;5054559;28;45463;-80
2023/06/02 05:17:02;;;;;;;;;16.00;10.00;;;;;;;;5054619;28;45514;-80
2023/06/02 05:19:27;;;;;;;;;11.00;8.25;;;;;;;;5055120;28;45562;-80
2023/06/02 05:21:52;;;;;;;;;15.67;12.00;;;;;;;;5055439;28;45500;-81
2023/06/02 05:24:17;;;;;;;;;14.00;10.33;;;;;;;;5055517;28;45360;-80
2023/06/02 05:26:43;;;;;;;;;16.67;11.00;;;;;;;;5055666;28;45521;-80
2023/06/02 05:29:08;;;;;;;;;18.00;11.00;;;;;;;;5055186;28;45473;-79
2023/06/02 05:31:33;;;;;;;;;14.00;11.00;;;;;;;;5057573;28;46303;-81
2023/06/02 05:33:59;;;;;;;;;9.67;9.33;;;;;;;;5074634;28;45330;-79
2023/06/02 05:36:24;;;;;;;;;14.00;8.75;;;;;;;;5063173;28;45362;-80
2023/06/02 05:38:49;;;;;;;;;10.33;9.00;;;;;;;;5059142;28;45330;-80
2023/06/02 05:41:14;;;;;;;;;13.67;11.00;;;;;;;;5058910;28;46375;-80
2023/06/02 05:43:39;;;;;;;;;18.33;11.00;;;;;;;;5040539;28;45214;-80
2023/06/02 05:46:05;;;;;;;;;13.33;8.67;;;;;;;;5039731;28;45481;-80
2023/06/02 05:48:31;;;;;;;;;11.33;10.33;;;;;;;;5038701;28;45282;-80
2023/06/02 05:50:56;;;;;;;;;15.25;10.00;;;;;;;;5038371;28;46001;-80
2023/06/02 05:53:21;;;;;;;;;11.33;7.33;;;;;;;;5038568;28;45460;-80
2023/06/02 05:55:46;;;;;;;;;14.33;10.33;;;;;;;;5037380;28;45287;-80
2023/06/02 05:58:11;;;;;;;;;13.00;8.67;;;;;;;;5036916;28;45498;-86
2023/06/02 06:00:37;;;;;;;;;12.00;9.33;;;;;;;;5043971;28;48006;-88
2023/06/02 06:03:03;;;;;;;;;16.50;8.50;;;;;;;;5050831;28;45460;-88
2023/06/02 06:05:28;;;;;;;;;14.25;10.75;;;;;;;;5037734;28;45611;-87
2023/06/02 06:07:54;;;;;;;;;16.67;10.00;;;;;;;;5044938;28;45498;-83
2023/06/02 06:10:21;;;;;;;;;12.00;10.00;;;;;;;;5058532;28;45540;-87
2023/06/02 06:12:49;;;;;;;;;10.00;6.50;;;;;;;;5058054;28;45761;-86
2023/06/02 06:15:19;;;;;;;;;12.75;10.25;;;;;;;;5058526;28;45392;-86
2023/06/02 06:17:49;;;;;;;;;10.00;4.25;;;;;;;;5058425;28;45414;-87
2023/06/02 06:20:15;;;;;;;;;13.00;9.00;;;;;;;;5053732;28;47094;-87
2023/06/02 06:22:40;;;;;;;;;16.00;11.75;;;;;;;;5049894;28;45363;-87
2023/06/02 06:25:06;;;;;;;;;14.75;9.00;;;;;;;;5057348;28;45314;-87
2023/06/02 06:27:31;;;;;;;;;13.75;9.00;;;;;;;;5057647;28;45416;-88
2023/06/02 06:29:59;;;;;;;;;13.00;10.00;;;;;;;;5056964;28;47960;-88
2023/06/02 06:32:24;;;;;;;;;16.25;9.00;;;;;;;;5058240;28;45273;-87
2023/06/02 06:34:49;;;;;;;;;12.25;11.00;;;;;;;;5057258;28;45600;-88
2023/06/02 06:37:15;;;;;;;;;14.33;10.33;;;;;;;;5057054;28;45431;-88
2023/06/02 06:39:47;;;;;;;;;11.75;10.25;;;;;;;;5053497;28;46260;-87
2023/06/02 06:42:12;;;;;;;;;10.50;9.50;;;;;;;;5037424;28;45300;-86
2023/06/02 06:44:38;;;;;;;;;11.33;9.33;;;;;;;;5037452;28;45249;-86
2023/06/02 06:47:03;;;;;;;;;15.33;9.67;;;;;;;;5042092;28;45288;-85
2023/06/02 06:49:28;;;;;;;;;15.00;9.75;;;;;;;;5054265;28;45676;-81
2023/06/02 06:51:53;;;;;;;;;20.67;11.00;;;;;;;;5046371;28;45230;-88
2023/06/02 06:54:19;;;;;;;;;14.67;10.33;;;;;;;;5057776;28;45290;-84
2023/06/02 06:56:45;;;;;;;;;7.67;7.00;;;;;;;;5044597;28;45271;-89
2023/06/02 06:59:13;;;;;;;;;11.75;10.50;;;;;;;;5038973;28;46597;-87
2023/06/02 07:01:40;;;;;;;;;17.50;9.00;;;;;;;;5037221;28;45523;-89
2023/06/02 07:04:06;;;;;;;;;15.00;9.00;;;;;;;;5037534;28;45357;-85
2023/06/02 07:06:32;;;;;;;;;13.00;11.00;;;;;;;;5038769;28;45285;-87
2023/06/02 07:08:57;;;;;;;;;20.25;10.25;;;;;;;;5064150;28;47889;-88
2023/06/02 07:11:22;;;;;;;;;12.75;11.25;;;;;;;;5059427;28;45452;-88
2023/06/02 07:13:48;;;;;;;;;13.00;8.00;;;;;;;;5051908;28;45492;-86
2023/06/02 07:16:13;;;;;;;;;13.75;9.25;;;;;;;;5059055;28;45445;-88
2023/06/02 07:18:39;;;;;;;;;13.00;10.00;;;;;;;;5058643;27;45382;-88
2023/06/02 07:21:08;;;;;;;;;19.75;13.25;;;;;;;;5055681;28;45961;-89
2023/06/02 07:23:33;;;;;;;;;10.25;6.75;;;;;;;;5056492;28;45371;-88
2023/06/02 07:25:58;;;;;;;;;12.00;10.00;;;;;;;;5051975;28;45710;-88
2023/06/02 07:28:23;;;;;;;;;13.33;12.33;;;;;;;;5054623;28;46631;-88
2023/06/02 07:30:49;;;;;;;;;12.00;8.33;;;;;;;;5055543;28;45495;-88
2023/06/02 07:33:17;;;;;;;;;10.50;8.75;;;;;;;;5057377;28;45372;-87
2023/06/02 07:35:42;;;;;;;;;10.25;9.25;;;;;;;;5055778;28;45386;-89
2023/06/02 07:38:07;;;;;;;;;11.75;6.50;;;;;;;;5055670;28;45863;-86
2023/06/02 07:40:33;;;;;;;;;13.00;6.00;;;;;;;;5055048;28;45289;-88
2023/06/02 07:43:01;;;;;;;;;12.50;7.75;;;;;;;;5056662;28;45463;-87
2023/06/02 07:45:26;;;;;;;;;7.00;6.00;;;;;;;;5055974;28;45498;-87
2023/06/02 07:47:52;;;;;;;;;5.33;5.33;;;;;;;;5063532;28;46572;-86
2023/06/02 07:50:18;;;;;;;;;8.25;6.25;;;;;;;;5061044;27;45441;-88
2023/06/02 07:52:46;;;;;;;;;7.50;6.00;;;;;;;;5055121;28;45385;-88
2023/06/02 07:55:12;;;;;;;;;6.50;5.75;;;;;;;;5064450;28;45706;-86
2023/06/02 07:57:37;;;;;;;;;9.75;7.00;;;;;;;;5055219;28;45324;-86
2023/06/02 08:00:12;;;;;;;;;11.33;6.00;;;;;;;;5036362;28;45372;-88
2023/06/02 08:02:47;;;;;;;;;;;;;;;;;;;;;
2023/06/02 08:05:15;;;;;;;;;10.00;8.00;;;;;;;;4997985;28;69424;-87
2023/06/02 08:07:40;;;;;;;;;11.25;6.75;;;;;;;;5036089;28;45456;-88
2023/06/02 08:10:09;;;;;;;;;7.75;6.00;;;;;;;;5034028;28;45347;-86
2023/06/02 08:12:34;;;;;;;;;8.75;6.75;;;;;;;;5043795;28;45409;-85
2023/06/02 08:15:00;;;;;;;;;12.50;7.25;;;;;;;;5036187;28;45325;-85
2023/06/02 08:17:31;;;;;;;;;10.50;9.00;;;;;;;;5041952;28;46717;-87
2023/06/02 08:19:57;;;;;;;;;7.75;6.00;;;;;;;;5027420;28;45392;-88
2023/06/02 08:22:25;;;;;;;;;13.25;8.75;;;;;;;;5033116;28;45561;-86
2023/06/02 08:24:53;;;;;;;;;8.00;5.50;;;;;;;;5034816;28;45326;-88
2023/06/02 08:27:21;;;;;;;;;12.75;7.00;;;;;;;;5035745;28;45644;-87
2023/06/02 08:30:07;;;;;;;;;15.75;11.25;;;;;;;;5032497;28;46140;-88
2023/06/02 08:32:38;;;;;;;;;11.50;6.50;;;;;;;;5032011;28;45341;-87
2023/06/02 08:35:07;;;;;;;;;11.25;7.00;;;;;;;;5035470;28;45712;-88
2023/06/02 08:37:40;;;;;;;;;13.00;10.25;;;;;;;;5036650;28;46256;-86
2023/06/02 08:40:09;;;;;;;;;8.00;7.75;;;;;;;;5024209;28;45868;-86
2023/06/02 08:42:34;;;;;;;;;15.25;10.00;;;;;;;;5025544;28;45391;-86
2023/06/02 08:44:59;;;;;;;;;12.75;8.00;;;;;;;;5050556;28;45660;-87
2023/06/02 08:47:38;;;;;;;;;12.50;8.00;;;;;;;;5044246;28;45698;-87
2023/06/02 08:50:06;;;;;;;;;9.00;6.25;;;;;;;;5036817;28;45824;-87
2023/06/02 08:52:42;;;;;;;;;14.75;9.50;;;;;;;;5032182;28;45419;-88
2023/06/02 08:55:11;;;;;;;;;15.00;10.25;;;;;;;;5020939;28;45317;-87
2023/06/02 08:57:36;;;;;;;;;11.50;9.75;;;;;;;;5026046;28;47277;-87
2023/06/02 09:00:05;;;;;;;;;17.00;8.00;;;;;;;;5052271;28;46038;-88
2023/06/02 09:02:45;;;;;;;;;14.50;7.00;;;;;;;;5053730;28;45418;-87
2023/06/02 09:05:16;;;;;;;;;9.00;8.75;;;;;;;;5059736;28;45352;-86
2023/06/02 09:07:47;;;;;;;;;9.50;8.25;;;;;;;;5047012;28;46378;-87
2023/06/02 09:10:29;;;;;;;;;11.00;10.00;;;;;;;;5058107;28;45718;-88
2023/06/02 09:12:58;;;;;;;;;12.25;7.75;;;;;;;;5066900;28;45417;-89
2023/06/02 09:15:24;;;;;;;;;13.50;7.25;;;;;;;;5056977;28;45486;-88
2023/06/02 09:17:49;;;;;;;;;15.75;8.75;;;;;;;;5056842;28;45998;-86
2023/06/02 09:20:29;;;;;;;;;7.50;4.75;;;;;;;;5058693;28;45396;-87
2023/06/02 09:23:02;;;;;;;;;12.50;6.25;;;;;;;;5046794;28;45462;-88
2023/06/02 09:25:35;;;;;;;;;10.75;7.25;;;;;;;;5058934;28;45913;-87
2023/06/02 09:28:07;;;;;;;;;11.00;6.00;;;;;;;;5060111;28;47735;-87
2023/06/02 09:30:36;;;;;;;;;9.00;6.25;;;;;;;;5061585;27;45703;-87
2023/06/02 09:33:08;;;;;;;;;11.00;6.00;;;;;;;;5059219;28;45430;-88
2023/06/02 09:35:52;;;;;;;;;11.75;5.75;;;;;;;;5059343;28;45299;-88
2023/06/02 09:38:18;;;;;;;;;14.75;8.00;;;;;;;;5059880;28;45418;-88
2023/06/02 09:40:51;;;;;;;;;10.00;7.67;;;;;;;;5058246;28;45263;-87
2023/06/02 09:43:27;;;;;;;;;8.50;7.75;;;;;;;;5052338;28;45154;-87
2023/06/02 09:45:57;;;;;;;;;6.00;6.00;;;;;;;;5053772;28;45509;-87
2023/06/02 09:48:23;;;;;;;;;9.00;6.75;;;;;;;;5065211;28;46268;-87
2023/06/02 09:50:50;;;;;;;;;8.25;7.00;;;;;;;;5058789;28;45273;-87
2023/06/02 09:53:17;;;;;;;;;11.50;7.75;;;;;;;;5059850;28;45263;-88
2023/06/02 09:55:44;;;;;;;;;7.75;5.75;;;;;;;;5054447;28;45373;-87
2023/06/02 09:58:12;;;;;;;;;9.75;5.75;;;;;;;;5060613;28;46591;-87
2023/06/02 10:00:41;;;;;;;;;13.00;9.50;;;;;;;;5055951;28;45366;-87
2023/06/02 10:03:06;;;;;;;;;12.00;6.25;;;;;;;;5057570;28;45360;-89
2023/06/02 10:05:32;;;;;;;;;15.50;8.00;;;;;;;;5063846;28;45322;-90
2023/06/02 10:08:19;;;;;;;;;12.75;7.00;;;;;;;;5079061;28;47589;-89
2023/06/02 10:10:53;;;;;;;;;7.00;5.75;;;;;;;;5059069;27;45534;-88
2023/06/02 10:13:34;;;;;;;;;10.75;7.00;;;;;;;;5056364;28;45237;-86
2023/06/02 10:16:17;;;;;;;;;5.50;5.50;;;;;;;;5049652;28;45486;-87
2023/06/02 10:19:01;;;;;;;;;13.50;6.75;;;;;;;;5053048;28;45340;-85
2023/06/02 10:21:39;;;;;;;;;13.00;6.00;;;;;;;;5049646;28;45774;-85
2023/06/02 10:24:07;;;;;;;;;7.75;6.00;;;;;;;;5071909;27;45433;-86
2023/06/02 10:26:41;;;;;;;;;9.25;7.50;;;;;;;;5054477;28;45388;-86
2023/06/02 10:29:08;;;;;;;;;10.25;8.00;;;;;;;;5056743;28;46321;-83
2023/06/02 10:31:34;;;;;;;;;10.50;6.75;;;;;;;;5061860;28;45439;-86
2023/06/02 10:34:00;;;;;;;;;6.25;5.50;;;;;;;;5058441;27;45509;-85
2023/06/02 10:36:26;;;;;;;;;10.25;5.75;;;;;;;;5052880;28;45609;-82
2023/06/02 10:38:52;;;;;;;;;8.00;5.50;;;;;;;;5041324;28;46389;-80
2023/06/02 10:41:21;;;;;;;;;8.75;6.25;;;;;;;;5064643;28;45687;-82
2023/06/02 10:44:05;;;;;;;;;14.00;8.50;;;;;;;;5055043;28;45278;-82
2023/06/02 10:46:31;;;;;;;;;5.25;4.75;;;;;;;;5054831;28;45323;-88
2023/06/02 10:48:56;;;;;;;;;6.50;4.25;;;;;;;;5057119;28;45513;-90
2023/06/02 10:51:21;;;;;;;;;4.00;2.50;;;;;;;;5055891;28;45304;-82
2023/06/02 10:54:07;;;;;;;;;5.67;5.00;;;;;;;;5052661;28;45326;-81
2023/06/02 10:56:35;;;;;;;;;4.75;4.00;;;;;;;;5051661;28;45663;-82
2023/06/02 10:59:00;;;;;;;;;8.00;5.50;;;;;;;;5054493;28;47400;-82
2023/06/02 11:01:44;;;;;;;;;9.33;5.33;;;;;;;;5048919;28;45867;-82
2023/06/02 11:04:29;;;;;;;;;9.50;5.00;;;;;;;;5051046;28;45397;-82
2023/06/02 11:07:09;;;;;;;;;9.50;5.00;;;;;;;;5048998;28;45300;-82
2023/06/02 11:09:35;;;;;;;;;7.00;4.75;;;;;;;;5047547;28;46417;-78
2023/06/02 11:12:00;;;;;;;;;6.25;5.00;;;;;;;;5037209;28;45458;-79
2023/06/02 11:14:26;;;;;;;;;6.25;4.75;;;;;;;;5054532;28;45387;-80
2023/06/02 11:17:24;;;;;;;;;5.00;4.67;;;;;;;;5048201;28;45530;-78
2023/06/02 11:19:49;;;;;;;;;6.00;4.00;;;;;;;;5013670;28;46448;-78
2023/06/02 11:22:17;;;;;;;;;7.00;6.00;;;;;;;;5013703;28;45550;-78
2023/06/02 11:24:42;;;;;;;;;11.00;5.75;;;;;;;;5013730;28;45808;-80
2023/06/02 11:27:08;;;;;;;;;5.33;4.33;;;;;;;;5013591;28;46899;-81
2023/06/02 11:29:33;;;;;;;;;7.00;6.67;;;;;;;;5013232;28;46059;-78
2023/06/02 11:31:59;;;;;;;;;6.25;6.00;;;;;;;;5009075;28;45706;-80
2023/06/02 11:34:26;;;;;;;;;10.75;4.25;;;;;;;;5013269;28;45594;-80
2023/06/02 11:36:53;;;;;;;;;5.75;5.00;;;;;;;;4997854;28;45472;-79
2023/06/02 11:39:19;;;;;;;;;6.25;5.00;;;;;;;;5013059;28;47603;-81
2023/06/02 11:41:57;;;;;;;;;8.67;5.00;;;;;;;;5013497;28;45448;-80
2023/06/02 11:44:22;;;;;;;;;6.75;4.75;;;;;;;;5024178;28;45484;-79
2023/06/02 11:46:47;;;;;;;;;6.00;5.50;;;;;;;;5012926;28;45628;-78
2023/06/02 11:49:13;;;;;;;;;9.33;8.00;;;;;;;;5013207;28;46038;-82
2023/06/02 11:51:39;;;;;;;;;6.75;4.50;;;;;;;;5015218;28;45508;-80
2023/06/02 11:54:08;;;;;;;;;8.00;4.25;;;;;;;;5013229;28;45514;-81
2023/06/02 11:56:35;;;;;;;;;8.25;4.25;;;;;;;;5050619;28;45575;-80
2023/06/02 11:59:00;;;;;;;;;8.00;4.00;;;;;;;;5059629;28;45644;-83
2023/06/02 12:01:30;;;;;;;;;5.00;4.00;;;;;;;;5055593;28;45369;-84
2023/06/02 12:04:03;;;;;;;;;6.50;4.00;;;;;;;;5056348;28;45302;-82
2023/06/02 12:06:29;;;;;;;;;7.50;5.00;;;;;;;;5056055;28;45309;-83
2023/06/02 12:08:55;;;;;;;;;7.25;5.00;;;;;;;;5048528;28;45548;-82
2023/06/02 12:11:24;;;;;;;;;8.00;5.00;;;;;;;;5043258;28;45547;-85
2023/06/02 12:13:55;;;;;;;;;6.75;4.00;;;;;;;;5055782;28;45433;-86
2023/06/02 12:16:21;;;;;;;;;6.50;4.00;;;;;;;;5049576;28;45541;-86
2023/06/02 12:18:47;;;;;;;;;3.75;3.75;;;;;;;;5054562;28;46550;-87
2023/06/02 12:21:27;;;;;;;;;5.50;3.75;;;;;;;;5054993;28;45741;-83
2023/06/02 12:23:53;;;;;;;;;7.75;3.75;;;;;;;;5053829;28;45418;-85
2023/06/02 12:26:19;;;;;;;;;5.50;3.00;;;;;;;;5059358;28;45437;-87
2023/06/02 12:28:44;;;;;;;;;11.75;6.25;;;;;;;;5045709;28;46356;-82
2023/06/02 12:31:09;;;;;;;;;8.50;6.00;;;;;;;;5055488;28;45381;-84
2023/06/02 12:33:35;;;;;;;;;6.67;5.00;;;;;;;;5050226;28;45369;-85
2023/06/02 12:36:00;;;;;;;;;5.67;4.00;;;;;;;;5055364;28;45574;-83
2023/06/02 12:38:27;;;;;;;;;7.25;4.00;;;;;;;;5041365;28;45325;-84
2023/06/02 12:40:52;;;;;;;;;5.50;5.00;;;;;;;;5054671;28;46395;-82
2023/06/02 12:43:19;;;;;;;;;6.25;5.00;;;;;;;;5039542;28;45396;-80
2023/06/02 12:45:45;;;;;;;;;6.75;5.75;;;;;;;;5040353;28;45616;-80
2023/06/02 12:48:11;;;;;;;;;7.00;5.25;;;;;;;;5049322;28;46687;-81
2023/06/02 12:50:36;;;;;;;;;5.75;4.50;;;;;;;;5051160;28;45681;-80
2023/06/02 12:53:02;;;;;;;;;12.00;5.00;;;;;;;;5050199;28;45429;-81
2023/06/02 12:55:27;;;;;;;;;4.67;4.67;;;;;;;;5059041;28;45845;-84
2023/06/02 12:57:52;;;;;;;;;7.75;4.50;;;;;;;;5047904;28;46241;-82
2023/06/02 13:00:18;;;;;;;;;6.50;4.75;;;;;;;;5041001;28;45541;-84
2023/06/02 13:02:44;;;;;;;;;7.50;5.25;;;;;;;;5050664;28;45803;-85
2023/06/02 13:05:10;;;;;;;;;9.75;4.50;;;;;;;;5045058;28;45503;-85
2023/06/02 13:07:37;;;;;;;;;9.50;5.25;;;;;;;;5054524;28;45419;-84
2023/06/02 13:10:02;;;;;;;;;4.75;4.50;;;;;;;;5053672;28;45221;-86
2023/06/02 13:12:27;;;;;;;;;7.00;4.00;;;;;;;;5052132;28;45450;-87
2023/06/02 13:14:52;;;;;;;;;7.67;4.33;;;;;;;;5053016;28;45561;-87
2023/06/02 13:17:17;;;;;;;;;3.33;3.00;;;;;;;;5047770;28;46487;-85
2023/06/02 13:19:46;;;;;;;;;4.00;4.00;;;;;;;;5038535;28;45450;-85
2023/06/02 13:22:11;;;;;;;;;2.75;2.50;;;;;;;;5058723;28;45540;-86
2023/06/02 13:24:37;;;;;;;;;10.50;3.25;;;;;;;;5051553;28;45586;-86
2023/06/02 13:27:02;;;;;;;;;7.00;6.00;;;;;;;;5054479;28;47365;-86
2023/06/02 13:29:28;;;;;;;;;6.00;3.50;;;;;;;;5054197;28;45490;-87
2023/06/02 13:31:53;;;;;;;;;5.00;3.67;;;;;;;;5050296;28;45726;-87
2023/06/02 13:34:18;;;;;;;;;7.67;4.33;;;;;;;;5055980;28;45375;-88
2023/06/02 13:36:44;;;;;;;;;4.50;4.00;;;;;;;;5043812;28;46142;-87
2023/06/02 13:39:10;;;;;;;;;4.25;4.00;;;;;;;;5051204;28;45528;-87
2023/06/02 13:41:35;;;;;;;;;3.75;2.75;;;;;;;;5051644;28;45824;-87
2023/06/02 13:44:00;;;;;;;;;4.00;4.00;;;;;;;;5055522;28;45347;-88
2023/06/02 13:46:25;;;;;;;;;9.00;3.00;;;;;;;;5043894;28;45484;-88
2023/06/02 13:48:51;;;;;;;;;4.00;3.33;;;;;;;;5052582;28;45484;-89
2023/06/02 13:51:16;;;;;;;;;3.00;2.75;;;;;;;;5071837;28;45486;-88
2023/06/02 13:53:41;;;;;;;;;6.00;3.00;;;;;;;;5060604;28;45229;-86
2023/06/02 13:56:06;;;;;;;;;4.00;4.00;;;;;;;;5044112;28;46529;-89
2023/06/02 13:58:35;;;;;;;;;6.00;4.00;;;;;;;;5051297;28;45465;-87
2023/06/02 14:01:01;;;;;;;;;6.25;3.00;;;;;;;;5056879;28;45505;-85
2023/06/02 14:03:26;;;;;;;;;5.00;5.00;;;;;;;;5050275;28;45519;-86
2023/06/02 14:05:51;;;;;;;;;4.67;4.00;;;;;;;;5049136;28;46950;-86
2023/06/02 14:08:17;;;;;;;;;3.67;3.00;;;;;;;;5056021;28;45707;-84
2023/06/02 14:10:42;;;;;;;;;5.50;2.75;;;;;;;;5055465;28;45854;-86
2023/06/02 14:13:07;;;;;;;;;6.33;4.67;;;;;;;;5057523;28;45438;-83
2023/06/02 14:15:32;;;;;;;;;3.33;3.33;;;;;;;;5049290;28;46377;-85
2023/06/02 14:17:58;;;;;;;;;5.75;4.25;;;;;;;;5054117;28;45466;-82
2023/06/02 14:20:23;;;;;;;;;6.00;3.00;;;;;;;;5057800;28;45466;-86
2023/06/02 14:22:48;;;;;;;;;3.00;3.00;;;;;;;;5056940;28;45978;-87
2023/06/02 14:25:13;;;;;;;;;3.00;3.00;;;;;;;;5057026;28;46294;-88
2023/06/02 14:27:41;;;;;;;;;5.50;2.25;;;;;;;;5059296;28;45443;-93
2023/06/02 14:30:25;;;;;;;;;5.00;2.00;;;;;;;;5058105;28;45693;-93
2023/06/02 14:32:50;;;;;;;;;3.50;2.75;;;;;;;;5056626;28;45360;-91
2023/06/02 14:35:16;;;;;;;;;5.00;3.00;;;;;;;;5067728;22;45661;-90
2023/06/02 14:37:41;;;;;;;;;3.50;3.00;;;;;;;;5046615;28;45899;-89